sensor_id;sensor_type;location;lat;lon;timestamp;temperature;humidity
25937;DHT22;13733;51.178;4.450;2022-07-23T00:00:31;17.50;99.90
25937;DHT22;13733;51.178;4.450;2022-07-23T00:02:56;17.50;99.90
25937;DHT22;13733;51.178;4.450;2022-07-23T00:05:22;17.50;99.90
25937;DHT22;13733;51.178;4.450;2022-07-23T00:07:48;17.50;99.90
25937;DHT22;13733;51.178;4.450;2022-07-23T00:10:14;17.50;99.90
25937;DHT22;13733;51.178;4.450;2022-07-23T00:12:40;17.40;99.90
25937;DHT22;13733;51.178;4.450;2022-07-23T00:15:07;17.40;99.90
25937;DHT22;13733;51.178;4.450;2022-07-23T00:17:33;17.30;99.90
25937;DHT22;13733;51.178;4.450;2022-07-23T00:19:59;17.30;99.90
25937;DHT22;13733;51.178;4.450;2022-07-23T00:22:25;17.30;99.90
25937;DHT22;13733;51.178;4.450;2022-07-23T00:24:51;17.30;99.90
25937;DHT22;13733;51.178;4.450;2022-07-23T00:27:17;17.20;99.90
25937;DHT22;13733;51.178;4.450;2022-07-23T00:29:43;17.20;99.90
25937;DHT22;13733;51.178;4.450;2022-07-23T00:32:08;17.20;99.90
25937;DHT22;13733;51.178;4.450;2022-07-23T00:34:34;17.20;99.90
25937;DHT22;13733;51.178;4.450;2022-07-23T00:37:00;17.20;99.90
25937;DHT22;13733;51.178;4.450;2022-07-23T00:39:26;17.20;99.90
25937;DHT22;13733;51.178;4.450;2022-07-23T00:41:52;17.20;99.90
25937;DHT22;13733;51.178;4.450;2022-07-23T00:44:25;17.10;99.90
25937;DHT22;13733;51.178;4.450;2022-07-23T00:46:53;17.10;99.90
25937;DHT22;13733;51.178;4.450;2022-07-23T00:49:21;17.10;99.90
25937;DHT22;13733;51.178;4.450;2022-07-23T00:51:48;17.10;99.90
25937;DHT22;13733;51.178;4.450;2022-07-23T00:54:18;17.10;99.90
25937;DHT22;13733;51.178;4.450;2022-07-23T00:56:44;17.00;99.90
25937;DHT22;13733;51.178;4.450;2022-07-23T00:59:11;17.00;99.90
25937;DHT22;13733;51.178;4.450;2022-07-23T01:01:37;17.00;99.90
25937;DHT22;13733;51.178;4.450;2022-07-23T01:04:03;17.00;99.90
25937;DHT22;13733;51.178;4.450;2022-07-23T01:06:29;17.00;99.90
25937;DHT22;13733;51.178;4.450;2022-07-23T01:08:55;17.00;99.90
25937;DHT22;13733;51.178;4.450;2022-07-23T01:11:23;17.00;99.90
25937;DHT22;13733;51.178;4.450;2022-07-23T01:13:50;16.90;99.90
25937;DHT22;13733;51.178;4.450;2022-07-23T01:16:16;16.90;99.90
25937;DHT22;13733;51.178;4.450;2022-07-23T01:18:42;16.90;99.90
25937;DHT22;13733;51.178;4.450;2022-07-23T01:21:10;16.80;99.90
25937;DHT22;13733;51.178;4.450;2022-07-23T01:23:39;16.80;99.90
25937;DHT22;13733;51.178;4.450;2022-07-23T01:26:05;16.70;99.90
25937;DHT22;13733;51.178;4.450;2022-07-23T01:28:30;16.70;99.90
25937;DHT22;13733;51.178;4.450;2022-07-23T01:30:58;16.70;99.90
25937;DHT22;13733;51.178;4.450;2022-07-23T01:33:24;16.70;99.90
25937;DHT22;13733;51.178;4.450;2022-07-23T01:35:50;16.70;99.90
25937;DHT22;13733;51.178;4.450;2022-07-23T01:38:21;16.70;99.90
25937;DHT22;13733;51.178;4.450;2022-07-23T01:40:46;16.60;99.90
25937;DHT22;13733;51.178;4.450;2022-07-23T01:43:12;16.60;99.90
25937;DHT22;13733;51.178;4.450;2022-07-23T01:45:38;16.60;99.90
25937;DHT22;13733;51.178;4.450;2022-07-23T01:48:04;16.60;99.90
25937;DHT22;13733;51.178;4.450;2022-07-23T01:50:31;16.60;99.90
25937;DHT22;13733;51.178;4.450;2022-07-23T01:53:20;16.60;99.90
25937;DHT22;13733;51.178;4.450;2022-07-23T01:55:45;16.50;99.90
25937;DHT22;13733;51.178;4.450;2022-07-23T01:58:12;16.60;99.90
25937;DHT22;13733;51.178;4.450;2022-07-23T02:00:39;16.50;99.90
25937;DHT22;13733;51.178;4.450;2022-07-23T02:03:05;16.50;99.90
25937;DHT22;13733;51.178;4.450;2022-07-23T02:05:30;16.50;99.90
25937;DHT22;13733;51.178;4.450;2022-07-23T02:07:59;16.50;99.90
25937;DHT22;13733;51.178;4.450;2022-07-23T02:10:25;16.50;99.90
25937;DHT22;13733;51.178;4.450;2022-07-23T02:12:51;16.40;99.90
25937;DHT22;13733;51.178;4.450;2022-07-23T02:15:17;16.40;99.90
25937;DHT22;13733;51.178;4.450;2022-07-23T02:17:43;16.40;99.90
25937;DHT22;13733;51.178;4.450;2022-07-23T02:20:10;16.30;99.90
25937;DHT22;13733;51.178;4.450;2022-07-23T02:22:36;16.30;99.90
25937;DHT22;13733;51.178;4.450;2022-07-23T02:25:03;16.20;99.90
25937;DHT22;13733;51.178;4.450;2022-07-23T02:27:30;16.20;99.90
25937;DHT22;13733;51.178;4.450;2022-07-23T02:29:56;16.30;99.90
25937;DHT22;13733;51.178;4.450;2022-07-23T02:32:23;16.20;99.90
25937;DHT22;13733;51.178;4.450;2022-07-23T02:34:49;16.20;99.90
25937;DHT22;13733;51.178;4.450;2022-07-23T02:37:16;16.20;99.90
25937;DHT22;13733;51.178;4.450;2022-07-23T02:39:42;16.20;99.90
25937;DHT22;13733;51.178;4.450;2022-07-23T02:42:08;16.20;99.90
25937;DHT22;13733;51.178;4.450;2022-07-23T02:44:34;16.20;99.90
25937;DHT22;13733;51.178;4.450;2022-07-23T02:47:01;16.10;99.90
25937;DHT22;13733;51.178;4.450;2022-07-23T02:49:26;16.00;99.90
25937;DHT22;13733;51.178;4.450;2022-07-23T02:51:52;16.00;99.90
25937;DHT22;13733;51.178;4.450;2022-07-23T02:54:18;16.00;99.90
25937;DHT22;13733;51.178;4.450;2022-07-23T02:56:44;16.00;99.90
25937;DHT22;13733;51.178;4.450;2022-07-23T02:59:13;16.00;99.90
25937;DHT22;13733;51.178;4.450;2022-07-23T03:01:38;15.90;99.90
25937;DHT22;13733;51.178;4.450;2022-07-23T03:04:06;15.90;99.90
25937;DHT22;13733;51.178;4.450;2022-07-23T03:06:31;15.90;99.90
25937;DHT22;13733;51.178;4.450;2022-07-23T03:08:57;16.00;99.90
25937;DHT22;13733;51.178;4.450;2022-07-23T03:11:23;16.00;99.90
25937;DHT22;13733;51.178;4.450;2022-07-23T03:13:49;15.90;99.90
25937;DHT22;13733;51.178;4.450;2022-07-23T03:16:14;15.90;99.90
25937;DHT22;13733;51.178;4.450;2022-07-23T03:18:40;16.00;99.90
25937;DHT22;13733;51.178;4.450;2022-07-23T03:21:06;15.90;99.90
25937;DHT22;13733;51.178;4.450;2022-07-23T03:23:32;15.90;99.90
25937;DHT22;13733;51.178;4.450;2022-07-23T03:25:58;15.90;99.90
25937;DHT22;13733;51.178;4.450;2022-07-23T03:28:24;15.90;99.90
25937;DHT22;13733;51.178;4.450;2022-07-23T03:30:49;15.90;99.90
25937;DHT22;13733;51.178;4.450;2022-07-23T03:33:18;15.80;99.90
25937;DHT22;13733;51.178;4.450;2022-07-23T03:35:45;15.80;99.90
25937;DHT22;13733;51.178;4.450;2022-07-23T03:38:19;15.80;99.90
25937;DHT22;13733;51.178;4.450;2022-07-23T03:40:45;15.70;99.90
25937;DHT22;13733;51.178;4.450;2022-07-23T03:43:11;15.70;99.90
25937;DHT22;13733;51.178;4.450;2022-07-23T03:45:37;15.70;99.90
25937;DHT22;13733;51.178;4.450;2022-07-23T03:48:03;15.70;99.90
25937;DHT22;13733;51.178;4.450;2022-07-23T03:50:29;15.70;99.90
25937;DHT22;13733;51.178;4.450;2022-07-23T03:52:55;15.70;99.90
25937;DHT22;13733;51.178;4.450;2022-07-23T03:55:21;15.70;99.90
25937;DHT22;13733;51.178;4.450;2022-07-23T03:57:47;15.70;99.90
25937;DHT22;13733;51.178;4.450;2022-07-23T04:00:14;15.70;99.90
25937;DHT22;13733;51.178;4.450;2022-07-23T04:02:41;15.70;99.90
25937;DHT22;13733;51.178;4.450;2022-07-23T04:05:08;15.70;99.90
25937;DHT22;13733;51.178;4.450;2022-07-23T04:07:34;15.70;99.90
25937;DHT22;13733;51.178;4.450;2022-07-23T04:10:01;15.70;99.90
25937;DHT22;13733;51.178;4.450;2022-07-23T04:12:28;15.70;99.90
25937;DHT22;13733;51.178;4.450;2022-07-23T04:14:54;15.70;99.90
25937;DHT22;13733;51.178;4.450;2022-07-23T04:17:20;15.70;99.90
25937;DHT22;13733;51.178;4.450;2022-07-23T04:19:46;15.70;99.90
25937;DHT22;13733;51.178;4.450;2022-07-23T04:22:16;15.60;99.90
25937;DHT22;13733;51.178;4.450;2022-07-23T04:24:41;15.70;99.90
25937;DHT22;13733;51.178;4.450;2022-07-23T04:27:08;15.70;99.90
25937;DHT22;13733;51.178;4.450;2022-07-23T04:29:34;15.60;99.90
25937;DHT22;13733;51.178;4.450;2022-07-23T04:31:59;15.70;99.90
25937;DHT22;13733;51.178;4.450;2022-07-23T04:34:26;15.70;99.90
25937;DHT22;13733;51.178;4.450;2022-07-23T04:36:53;15.80;99.90
25937;DHT22;13733;51.178;4.450;2022-07-23T04:39:20;15.80;99.90
25937;DHT22;13733;51.178;4.450;2022-07-23T04:41:46;15.90;99.90
25937;DHT22;13733;51.178;4.450;2022-07-23T04:44:12;15.80;99.90
25937;DHT22;13733;51.178;4.450;2022-07-23T04:46:38;15.90;99.90
25937;DHT22;13733;51.178;4.450;2022-07-23T04:49:06;16.00;99.90
25937;DHT22;13733;51.178;4.450;2022-07-23T04:51:32;16.00;99.90
25937;DHT22;13733;51.178;4.450;2022-07-23T04:53:59;16.10;99.90
25937;DHT22;13733;51.178;4.450;2022-07-23T04:56:24;16.10;99.90
25937;DHT22;13733;51.178;4.450;2022-07-23T04:58:50;16.10;99.90
25937;DHT22;13733;51.178;4.450;2022-07-23T05:01:16;16.10;99.90
25937;DHT22;13733;51.178;4.450;2022-07-23T05:03:42;16.10;99.90
25937;DHT22;13733;51.178;4.450;2022-07-23T05:06:08;16.20;99.90
25937;DHT22;13733;51.178;4.450;2022-07-23T05:08:35;16.20;99.90
25937;DHT22;13733;51.178;4.450;2022-07-23T05:11:01;16.30;99.90
25937;DHT22;13733;51.178;4.450;2022-07-23T05:13:28;16.30;99.90
25937;DHT22;13733;51.178;4.450;2022-07-23T05:15:54;16.40;99.90
25937;DHT22;13733;51.178;4.450;2022-07-23T05:18:20;16.50;99.90
25937;DHT22;13733;51.178;4.450;2022-07-23T05:20:46;16.50;99.90
25937;DHT22;13733;51.178;4.450;2022-07-23T05:23:16;16.70;99.90
25937;DHT22;13733;51.178;4.450;2022-07-23T05:25:42;16.60;99.90
25937;DHT22;13733;51.178;4.450;2022-07-23T05:28:08;16.70;99.90
25937;DHT22;13733;51.178;4.450;2022-07-23T05:30:34;16.70;99.90
25937;DHT22;13733;51.178;4.450;2022-07-23T05:33:03;16.80;99.90
25937;DHT22;13733;51.178;4.450;2022-07-23T05:35:29;16.80;99.90
25937;DHT22;13733;51.178;4.450;2022-07-23T05:38:15;16.90;99.90
25937;DHT22;13733;51.178;4.450;2022-07-23T05:40:42;17.00;99.90
25937;DHT22;13733;51.178;4.450;2022-07-23T05:43:07;17.00;99.90
25937;DHT22;13733;51.178;4.450;2022-07-23T05:45:34;17.10;99.90
25937;DHT22;13733;51.178;4.450;2022-07-23T05:48:00;17.20;99.90
25937;DHT22;13733;51.178;4.450;2022-07-23T05:50:32;17.20;99.90
25937;DHT22;13733;51.178;4.450;2022-07-23T05:53:05;17.30;99.90
25937;DHT22;13733;51.178;4.450;2022-07-23T05:55:49;17.30;99.90
25937;DHT22;13733;51.178;4.450;2022-07-23T05:58:15;17.30;99.90
25937;DHT22;13733;51.178;4.450;2022-07-23T06:00:41;17.30;99.90
25937;DHT22;13733;51.178;4.450;2022-07-23T06:03:06;17.30;99.90
25937;DHT22;13733;51.178;4.450;2022-07-23T06:05:32;17.40;99.90
25937;DHT22;13733;51.178;4.450;2022-07-23T06:07:58;17.30;99.90
25937;DHT22;13733;51.178;4.450;2022-07-23T06:10:25;17.40;99.90
25937;DHT22;13733;51.178;4.450;2022-07-23T06:12:50;17.50;99.90
25937;DHT22;13733;51.178;4.450;2022-07-23T06:15:17;17.60;99.90
25937;DHT22;13733;51.178;4.450;2022-07-23T06:17:43;17.60;99.90
25937;DHT22;13733;51.178;4.450;2022-07-23T06:20:10;17.80;99.90
25937;DHT22;13733;51.178;4.450;2022-07-23T06:22:38;17.80;99.90
25937;DHT22;13733;51.178;4.450;2022-07-23T06:25:05;17.80;99.90
25937;DHT22;13733;51.178;4.450;2022-07-23T06:27:31;17.90;99.90
25937;DHT22;13733;51.178;4.450;2022-07-23T06:29:57;18.00;99.90
25937;DHT22;13733;51.178;4.450;2022-07-23T06:32:22;18.10;99.90
25937;DHT22;13733;51.178;4.450;2022-07-23T06:34:48;18.20;99.90
25937;DHT22;13733;51.178;4.450;2022-07-23T06:37:14;18.20;99.90
25937;DHT22;13733;51.178;4.450;2022-07-23T06:39:40;18.30;99.90
25937;DHT22;13733;51.178;4.450;2022-07-23T06:42:05;18.40;99.90
25937;DHT22;13733;51.178;4.450;2022-07-23T06:44:57;18.50;99.90
25937;DHT22;13733;51.178;4.450;2022-07-23T06:47:23;18.50;99.90
25937;DHT22;13733;51.178;4.450;2022-07-23T06:49:49;18.60;99.90
25937;DHT22;13733;51.178;4.450;2022-07-23T06:52:16;18.60;99.90
25937;DHT22;13733;51.178;4.450;2022-07-23T06:54:42;18.80;99.90
25937;DHT22;13733;51.178;4.450;2022-07-23T06:57:08;18.80;99.90
25937;DHT22;13733;51.178;4.450;2022-07-23T06:59:34;18.90;99.90
25937;DHT22;13733;51.178;4.450;2022-07-23T07:02:02;19.00;99.90
25937;DHT22;13733;51.178;4.450;2022-07-23T07:04:27;19.00;99.90
25937;DHT22;13733;51.178;4.450;2022-07-23T07:06:53;19.10;99.90
25937;DHT22;13733;51.178;4.450;2022-07-23T07:09:19;19.20;99.90
25937;DHT22;13733;51.178;4.450;2022-07-23T07:11:45;19.30;99.90
25937;DHT22;13733;51.178;4.450;2022-07-23T07:14:10;19.40;99.90
25937;DHT22;13733;51.178;4.450;2022-07-23T07:16:36;19.50;99.90
25937;DHT22;13733;51.178;4.450;2022-07-23T07:19:02;19.60;99.90
25937;DHT22;13733;51.178;4.450;2022-07-23T07:21:29;19.60;99.90
25937;DHT22;13733;51.178;4.450;2022-07-23T07:23:54;19.70;99.90
25937;DHT22;13733;51.178;4.450;2022-07-23T07:26:20;19.70;99.90
25937;DHT22;13733;51.178;4.450;2022-07-23T07:28:46;19.70;99.90
25937;DHT22;13733;51.178;4.450;2022-07-23T07:31:11;19.70;99.90
25937;DHT22;13733;51.178;4.450;2022-07-23T07:33:39;19.90;99.90
25937;DHT22;13733;51.178;4.450;2022-07-23T07:36:05;19.90;99.90
25937;DHT22;13733;51.178;4.450;2022-07-23T07:38:30;19.90;99.90
25937;DHT22;13733;51.178;4.450;2022-07-23T07:40:56;20.10;99.90
25937;DHT22;13733;51.178;4.450;2022-07-23T07:43:22;20.10;99.90
25937;DHT22;13733;51.178;4.450;2022-07-23T07:45:48;20.20;99.90
25937;DHT22;13733;51.178;4.450;2022-07-23T07:48:14;20.30;99.90
25937;DHT22;13733;51.178;4.450;2022-07-23T07:50:39;20.30;99.90
25937;DHT22;13733;51.178;4.450;2022-07-23T07:53:05;20.40;99.90
25937;DHT22;13733;51.178;4.450;2022-07-23T07:55:31;20.50;99.90
25937;DHT22;13733;51.178;4.450;2022-07-23T07:57:57;20.60;99.90
25937;DHT22;13733;51.178;4.450;2022-07-23T08:00:23;20.60;99.90
25937;DHT22;13733;51.178;4.450;2022-07-23T08:02:51;20.60;99.90
25937;DHT22;13733;51.178;4.450;2022-07-23T08:05:23;20.60;99.90
25937;DHT22;13733;51.178;4.450;2022-07-23T08:07:49;20.70;99.90
25937;DHT22;13733;51.178;4.450;2022-07-23T08:10:15;20.80;99.90
25937;DHT22;13733;51.178;4.450;2022-07-23T08:15:11;21.10;99.90
25937;DHT22;13733;51.178;4.450;2022-07-23T08:17:37;21.10;99.90
25937;DHT22;13733;51.178;4.450;2022-07-23T08:20:05;21.30;99.90
25937;DHT22;13733;51.178;4.450;2022-07-23T08:25:26;21.30;99.90
25937;DHT22;13733;51.178;4.450;2022-07-23T08:27:53;21.20;99.90
25937;DHT22;13733;51.178;4.450;2022-07-23T08:30:19;21.50;99.90
25937;DHT22;13733;51.178;4.450;2022-07-23T08:32:56;21.70;99.90
25937;DHT22;13733;51.178;4.450;2022-07-23T08:35:25;21.70;99.90
25937;DHT22;13733;51.178;4.450;2022-07-23T08:37:51;21.60;99.90
25937;DHT22;13733;51.178;4.450;2022-07-23T08:40:17;21.60;99.90
25937;DHT22;13733;51.178;4.450;2022-07-23T08:42:45;21.80;99.90
25937;DHT22;13733;51.178;4.450;2022-07-23T08:45:12;21.80;99.90
25937;DHT22;13733;51.178;4.450;2022-07-23T08:47:41;22.00;99.90
25937;DHT22;13733;51.178;4.450;2022-07-23T08:50:07;22.20;99.90
25937;DHT22;13733;51.178;4.450;2022-07-23T08:52:36;22.30;99.90
25937;DHT22;13733;51.178;4.450;2022-07-23T08:55:03;22.50;99.90
25937;DHT22;13733;51.178;4.450;2022-07-23T08:57:29;22.50;99.90
25937;DHT22;13733;51.178;4.450;2022-07-23T08:59:54;22.50;99.90
25937;DHT22;13733;51.178;4.450;2022-07-23T09:02:20;22.50;99.90
25937;DHT22;13733;51.178;4.450;2022-07-23T09:04:46;22.60;99.90
25937;DHT22;13733;51.178;4.450;2022-07-23T09:07:11;22.80;99.90
25937;DHT22;13733;51.178;4.450;2022-07-23T09:09:37;22.90;99.90
25937;DHT22;13733;51.178;4.450;2022-07-23T09:12:05;22.90;99.90
25937;DHT22;13733;51.178;4.450;2022-07-23T09:14:42;22.80;99.90
25937;DHT22;13733;51.178;4.450;2022-07-23T09:17:15;22.80;99.70
25937;DHT22;13733;51.178;4.450;2022-07-23T09:19:43;22.90;99.90
25937;DHT22;13733;51.178;4.450;2022-07-23T09:22:23;23.10;99.30
25937;DHT22;13733;51.178;4.450;2022-07-23T09:25:11;23.40;99.90
25937;DHT22;13733;51.178;4.450;2022-07-23T09:30:19;23.50;99.90
25937;DHT22;13733;51.178;4.450;2022-07-23T09:38:19;23.40;99.90
25937;DHT22;13733;51.178;4.450;2022-07-23T09:40:45;23.60;99.90
25937;DHT22;13733;51.178;4.450;2022-07-23T09:43:12;23.80;99.90
25937;DHT22;13733;51.178;4.450;2022-07-23T09:45:38;23.90;99.90
25937;DHT22;13733;51.178;4.450;2022-07-23T09:50:37;24.30;99.90
25937;DHT22;13733;51.178;4.450;2022-07-23T09:53:03;24.80;99.00
25937;DHT22;13733;51.178;4.450;2022-07-23T09:55:33;25.20;97.40
25937;DHT22;13733;51.178;4.450;2022-07-23T09:58:04;25.60;97.90
25937;DHT22;13733;51.178;4.450;2022-07-23T10:00:31;25.90;97.60
25937;DHT22;13733;51.178;4.450;2022-07-23T10:02:58;25.90;96.70
25937;DHT22;13733;51.178;4.450;2022-07-23T10:05:28;25.70;96.00
25937;DHT22;13733;51.178;4.450;2022-07-23T10:08:27;25.40;96.50
25937;DHT22;13733;51.178;4.450;2022-07-23T10:11:32;25.40;97.30
25937;DHT22;13733;51.178;4.450;2022-07-23T10:14:11;25.40;97.50
25937;DHT22;13733;51.178;4.450;2022-07-23T10:16:57;25.60;96.50
25937;DHT22;13733;51.178;4.450;2022-07-23T10:19:24;25.60;96.50
25937;DHT22;13733;51.178;4.450;2022-07-23T10:21:54;25.80;95.80
25937;DHT22;13733;51.178;4.450;2022-07-23T10:24:28;25.90;95.40
25937;DHT22;13733;51.178;4.450;2022-07-23T10:30:12;26.20;93.80
25937;DHT22;13733;51.178;4.450;2022-07-23T10:32:56;26.40;92.80
25937;DHT22;13733;51.178;4.450;2022-07-23T10:35:54;26.50;92.90
25937;DHT22;13733;51.178;4.450;2022-07-23T10:38:28;26.50;92.40
25937;DHT22;13733;51.178;4.450;2022-07-23T10:41:00;26.50;92.30
25937;DHT22;13733;51.178;4.450;2022-07-23T10:43:27;26.50;91.10
25937;DHT22;13733;51.178;4.450;2022-07-23T10:45:54;26.50;90.90
25937;DHT22;13733;51.178;4.450;2022-07-23T10:48:25;26.60;90.60
25937;DHT22;13733;51.178;4.450;2022-07-23T10:51:13;26.80;92.10
25937;DHT22;13733;51.178;4.450;2022-07-23T10:59:24;27.20;89.10
25937;DHT22;13733;51.178;4.450;2022-07-23T11:01:50;27.50;88.80
25937;DHT22;13733;51.178;4.450;2022-07-23T11:04:16;27.50;81.20
25937;DHT22;13733;51.178;4.450;2022-07-23T11:09:43;28.50;76.60
25937;DHT22;13733;51.178;4.450;2022-07-23T11:15:00;29.70;66.80
25937;DHT22;13733;51.178;4.450;2022-07-23T11:17:29;30.50;62.70
25937;DHT22;13733;51.178;4.450;2022-07-23T11:25:11;32.10;55.50
25937;DHT22;13733;51.178;4.450;2022-07-23T11:27:44;32.50;53.30
25937;DHT22;13733;51.178;4.450;2022-07-23T11:35:44;34.10;47.00
25937;DHT22;13733;51.178;4.450;2022-07-23T11:38:21;34.50;45.60
25937;DHT22;13733;51.178;4.450;2022-07-23T11:40:50;34.80;43.80
25937;DHT22;13733;51.178;4.450;2022-07-23T11:43:17;35.50;44.20
25937;DHT22;13733;51.178;4.450;2022-07-23T11:45:46;35.70;42.40
25937;DHT22;13733;51.178;4.450;2022-07-23T11:48:22;35.70;41.90
25937;DHT22;13733;51.178;4.450;2022-07-23T11:50:50;35.90;41.50
25937;DHT22;13733;51.178;4.450;2022-07-23T11:53:27;36.00;40.30
25937;DHT22;13733;51.178;4.450;2022-07-23T11:55:53;36.40;40.00
25937;DHT22;13733;51.178;4.450;2022-07-23T11:58:22;36.10;39.50
25937;DHT22;13733;51.178;4.450;2022-07-23T12:00:48;36.10;39.20
25937;DHT22;13733;51.178;4.450;2022-07-23T12:03:16;36.00;39.60
25937;DHT22;13733;51.178;4.450;2022-07-23T12:05:42;36.30;38.60
25937;DHT22;13733;51.178;4.450;2022-07-23T12:08:09;36.70;38.80
25937;DHT22;13733;51.178;4.450;2022-07-23T12:10:44;37.20;37.80
25937;DHT22;13733;51.178;4.450;2022-07-23T12:13:15;37.50;37.10
25937;DHT22;13733;51.178;4.450;2022-07-23T12:15:44;37.10;36.90
25937;DHT22;13733;51.178;4.450;2022-07-23T12:18:30;37.50;35.80
25937;DHT22;13733;51.178;4.450;2022-07-23T12:20:57;36.80;34.60
25937;DHT22;13733;51.178;4.450;2022-07-23T12:23:28;36.80;36.00
25937;DHT22;13733;51.178;4.450;2022-07-23T12:25:54;36.60;37.60
25937;DHT22;13733;51.178;4.450;2022-07-23T12:28:30;36.80;36.30
25937;DHT22;13733;51.178;4.450;2022-07-23T12:30:57;37.10;36.90
25937;DHT22;13733;51.178;4.450;2022-07-23T12:33:38;37.50;34.00
25937;DHT22;13733;51.178;4.450;2022-07-23T12:36:06;38.20;32.30
25937;DHT22;13733;51.178;4.450;2022-07-23T12:38:41;38.00;32.30
25937;DHT22;13733;51.178;4.450;2022-07-23T12:41:07;37.30;33.40
25937;DHT22;13733;51.178;4.450;2022-07-23T12:43:38;37.70;33.40
25937;DHT22;13733;51.178;4.450;2022-07-23T12:53:50;38.60;31.60
25937;DHT22;13733;51.178;4.450;2022-07-23T12:56:32;38.60;31.10
25937;DHT22;13733;51.178;4.450;2022-07-23T13:01:38;38.70;30.00
25937;DHT22;13733;51.178;4.450;2022-07-23T13:06:42;38.10;31.70
25937;DHT22;13733;51.178;4.450;2022-07-23T13:09:11;38.70;31.80
25937;DHT22;13733;51.178;4.450;2022-07-23T13:11:38;39.10;30.10
25937;DHT22;13733;51.178;4.450;2022-07-23T13:14:05;39.50;29.60
25937;DHT22;13733;51.178;4.450;2022-07-23T13:16:31;38.30;30.30
25937;DHT22;13733;51.178;4.450;2022-07-23T13:19:00;38.00;31.60
25937;DHT22;13733;51.178;4.450;2022-07-23T13:21:26;38.50;31.70
25937;DHT22;13733;51.178;4.450;2022-07-23T13:23:53;38.40;32.00
25937;DHT22;13733;51.178;4.450;2022-07-23T13:26:19;38.60;31.50
25937;DHT22;13733;51.178;4.450;2022-07-23T13:28:44;39.10;30.50
25937;DHT22;13733;51.178;4.450;2022-07-23T13:31:10;40.00;31.30
25937;DHT22;13733;51.178;4.450;2022-07-23T13:33:36;40.20;29.80
25937;DHT22;13733;51.178;4.450;2022-07-23T13:36:03;39.90;29.50
25937;DHT22;13733;51.178;4.450;2022-07-23T13:38:29;39.30;29.40
25937;DHT22;13733;51.178;4.450;2022-07-23T13:40:55;38.70;30.20
25937;DHT22;13733;51.178;4.450;2022-07-23T13:43:23;39.00;29.80
25937;DHT22;13733;51.178;4.450;2022-07-23T13:45:51;38.40;29.10
25937;DHT22;13733;51.178;4.450;2022-07-23T13:48:18;37.50;29.80
25937;DHT22;13733;51.178;4.450;2022-07-23T13:50:46;36.30;31.30
25937;DHT22;13733;51.178;4.450;2022-07-23T13:53:17;35.60;32.00
25937;DHT22;13733;51.178;4.450;2022-07-23T13:55:43;35.10;33.00
25937;DHT22;13733;51.178;4.450;2022-07-23T13:58:10;35.30;34.80
25937;DHT22;13733;51.178;4.450;2022-07-23T14:00:42;35.30;33.50
25937;DHT22;13733;51.178;4.450;2022-07-23T14:03:08;34.50;34.10
25937;DHT22;13733;51.178;4.450;2022-07-23T14:05:34;34.10;34.80
25937;DHT22;13733;51.178;4.450;2022-07-23T14:08:00;34.30;35.80
25937;DHT22;13733;51.178;4.450;2022-07-23T14:10:26;34.90;35.00
25937;DHT22;13733;51.178;4.450;2022-07-23T14:12:52;35.60;34.20
25937;DHT22;13733;51.178;4.450;2022-07-23T14:15:21;37.40;33.00
25937;DHT22;13733;51.178;4.450;2022-07-23T14:17:47;39.20;30.80
25937;DHT22;13733;51.178;4.450;2022-07-23T14:20:13;40.40;29.70
25937;DHT22;13733;51.178;4.450;2022-07-23T14:22:40;41.20;28.40
25937;DHT22;13733;51.178;4.450;2022-07-23T14:25:07;40.90;28.30
25937;DHT22;13733;51.178;4.450;2022-07-23T14:27:33;40.50;28.40
25937;DHT22;13733;51.178;4.450;2022-07-23T14:30:01;39.00;29.30
25937;DHT22;13733;51.178;4.450;2022-07-23T14:32:27;38.80;30.00
25937;DHT22;13733;51.178;4.450;2022-07-23T14:34:53;39.50;29.30
25937;DHT22;13733;51.178;4.450;2022-07-23T14:37:19;39.70;28.90
25937;DHT22;13733;51.178;4.450;2022-07-23T14:39:45;39.60;28.50
25937;DHT22;13733;51.178;4.450;2022-07-23T14:42:11;39.50;28.80
25937;DHT22;13733;51.178;4.450;2022-07-23T14:44:38;39.30;29.60
25937;DHT22;13733;51.178;4.450;2022-07-23T14:47:04;39.30;29.20
25937;DHT22;13733;51.178;4.450;2022-07-23T14:49:33;39.60;29.50
25937;DHT22;13733;51.178;4.450;2022-07-23T14:51:59;39.80;29.00
25937;DHT22;13733;51.178;4.450;2022-07-23T14:54:26;39.60;28.70
25937;DHT22;13733;51.178;4.450;2022-07-23T14:56:53;39.70;29.00
25937;DHT22;13733;51.178;4.450;2022-07-23T14:59:22;39.90;28.70
25937;DHT22;13733;51.178;4.450;2022-07-23T15:01:49;39.30;28.80
25937;DHT22;13733;51.178;4.450;2022-07-23T15:04:15;39.60;29.20
25937;DHT22;13733;51.178;4.450;2022-07-23T15:06:41;39.50;29.00
25937;DHT22;13733;51.178;4.450;2022-07-23T15:09:07;38.50;29.90
25937;DHT22;13733;51.178;4.450;2022-07-23T15:11:33;37.40;30.60
25937;DHT22;13733;51.178;4.450;2022-07-23T15:14:07;37.30;30.80
25937;DHT22;13733;51.178;4.450;2022-07-23T15:16:33;38.00;30.20
25937;DHT22;13733;51.178;4.450;2022-07-23T15:18:59;38.00;31.00
25937;DHT22;13733;51.178;4.450;2022-07-23T15:21:28;38.50;30.10
25937;DHT22;13733;51.178;4.450;2022-07-23T15:23:55;38.60;30.30
25937;DHT22;13733;51.178;4.450;2022-07-23T15:26:28;39.30;29.80
25937;DHT22;13733;51.178;4.450;2022-07-23T15:28:54;39.70;29.70
25937;DHT22;13733;51.178;4.450;2022-07-23T15:31:20;39.60;29.00
25937;DHT22;13733;51.178;4.450;2022-07-23T15:33:46;40.60;28.80
25937;DHT22;13733;51.178;4.450;2022-07-23T15:36:12;41.40;28.20
25937;DHT22;13733;51.178;4.450;2022-07-23T15:38:38;42.00;27.90
25937;DHT22;13733;51.178;4.450;2022-07-23T15:41:07;41.70;27.30
25937;DHT22;13733;51.178;4.450;2022-07-23T15:43:33;41.40;27.30
25937;DHT22;13733;51.178;4.450;2022-07-23T15:45:59;41.00;27.90
25937;DHT22;13733;51.178;4.450;2022-07-23T15:48:26;39.80;28.60
25937;DHT22;13733;51.178;4.450;2022-07-23T15:50:52;40.10;28.50
25937;DHT22;13733;51.178;4.450;2022-07-23T15:53:18;40.30;28.20
25937;DHT22;13733;51.178;4.450;2022-07-23T15:55:45;40.90;28.10
25937;DHT22;13733;51.178;4.450;2022-07-23T15:58:12;41.40;27.40
25937;DHT22;13733;51.178;4.450;2022-07-23T16:00:38;41.80;27.30
25937;DHT22;13733;51.178;4.450;2022-07-23T16:03:04;42.10;26.70
25937;DHT22;13733;51.178;4.450;2022-07-23T16:05:30;42.20;26.80
25937;DHT22;13733;51.178;4.450;2022-07-23T16:07:56;41.80;26.80
25937;DHT22;13733;51.178;4.450;2022-07-23T16:10:22;41.40;27.10
25937;DHT22;13733;51.178;4.450;2022-07-23T16:12:48;41.60;26.90
25937;DHT22;13733;51.178;4.450;2022-07-23T16:15:14;41.50;27.00
25937;DHT22;13733;51.178;4.450;2022-07-23T16:17:40;42.00;26.90
25937;DHT22;13733;51.178;4.450;2022-07-23T16:20:06;42.30;26.50
25937;DHT22;13733;51.178;4.450;2022-07-23T16:22:33;42.00;26.40
25937;DHT22;13733;51.178;4.450;2022-07-23T16:24:59;42.50;26.20
25937;DHT22;13733;51.178;4.450;2022-07-23T16:27:25;41.90;26.50